createdAt,value
2022-12-31T00:01:18.733Z,76.70
2022-12-31T00:03:47.248Z,76.80
2022-12-31T00:06:20.885Z,76.80
2022-12-31T00:08:49.380Z,76.80
2022-12-31T00:11:17.361Z,76.90
2022-12-31T00:13:46.811Z,76.80
2022-12-31T00:16:19.850Z,76.80
2022-12-31T00:18:51.377Z,76.90
2022-12-31T00:21:19.890Z,76.90
2022-12-31T00:23:48.201Z,76.90
2022-12-31T00:26:22.364Z,76.90
2022-12-31T00:28:49.927Z,77.00
2022-12-31T00:31:21.750Z,77.00
2022-12-31T00:33:49.429Z,76.90
2022-12-31T00:36:27.479Z,76.90
2022-12-31T00:38:58.129Z,77.00
2022-12-31T00:41:27.688Z,77.10
2022-12-31T00:43:56.291Z,77.20
2022-12-31T00:46:25.382Z,77.30
2022-12-31T00:48:54.026Z,77.20
2022-12-31T00:51:24.503Z,77.30
2022-12-31T00:53:52.047Z,77.30
2022-12-31T00:56:28.069Z,77.30
2022-12-31T00:58:56.013Z,77.30
2022-12-31T01:01:27.982Z,77.30
2022-12-31T01:04:02.304Z,77.30
2022-12-31T01:06:30.228Z,77.30
2022-12-31T01:08:57.935Z,77.30
2022-12-31T01:11:29.635Z,77.30
2022-12-31T01:14:04.418Z,77.30
2022-12-31T01:16:51.035Z,77.30
2022-12-31T01:19:22.873Z,77.20
2022-12-31T01:21:51.640Z,77.30
2022-12-31T01:24:19.456Z,77.30
2022-12-31T01:26:47.520Z,77.40
2022-12-31T01:29:17.072Z,77.30
2022-12-31T01:31:44.722Z,77.30
2022-12-31T01:34:12.210Z,77.40
2022-12-31T01:36:40.034Z,77.30
2022-12-31T01:39:09.496Z,77.40
2022-12-31T01:41:44.344Z,78.00
2022-12-31T01:44:11.667Z,77.50
2022-12-31T01:46:52.420Z,77.30
2022-12-31T01:49:26.842Z,77.40
2022-12-31T01:52:04.785Z,77.50
2022-12-31T01:54:38.584Z,77.50
2022-12-31T01:57:08.797Z,77.50
2022-12-31T01:59:37.211Z,77.50
2022-12-31T02:02:06.265Z,77.50
2022-12-31T02:04:34.076Z,77.50
2022-12-31T02:07:10.062Z,77.50
2022-12-31T02:09:40.641Z,77.60
2022-12-31T02:12:09.849Z,77.50
2022-12-31T02:14:48.861Z,77.50
2022-12-31T02:17:58.683Z,77.60
2022-12-31T02:21:06.350Z,77.60
2022-12-31T02:24:02.507Z,77.60
2022-12-31T02:26:55.937Z,77.60
2022-12-31T02:30:23.630Z,77.60
2022-12-31T02:32:55.950Z,77.60
2022-12-31T02:35:30.666Z,77.60
2022-12-31T02:38:05.918Z,77.60
2022-12-31T02:40:36.007Z,77.60
2022-12-31T02:43:03.809Z,77.50
2022-12-31T02:45:41.072Z,77.60
2022-12-31T02:48:27.745Z,77.70
2022-12-31T02:51:09.935Z,77.70
2022-12-31T02:53:50.503Z,77.80
2022-12-31T02:56:29.765Z,77.80
2022-12-31T02:59:45.039Z,77.70
2022-12-31T03:02:16.982Z,77.70
2022-12-31T03:04:57.506Z,77.70
2022-12-31T03:07:29.670Z,77.80
2022-12-31T03:09:57.301Z,77.80
2022-12-31T03:12:48.340Z,77.80
2022-12-31T03:15:28.915Z,77.90
2022-12-31T03:18:39.593Z,77.90
2022-12-31T03:21:32.397Z,77.90
2022-12-31T03:24:18.313Z,77.90
2022-12-31T03:26:45.757Z,78.00
2022-12-31T03:29:13.372Z,78.00
2022-12-31T03:31:40.986Z,78.00
2022-12-31T03:34:08.565Z,78.00
2022-12-31T03:36:36.094Z,78.00
2022-12-31T03:39:03.625Z,78.00
2022-12-31T03:41:32.830Z,78.00
2022-12-31T03:44:00.379Z,78.00
2022-12-31T03:46:28.029Z,78.00
2022-12-31T03:48:55.597Z,78.00
2022-12-31T03:51:23.277Z,78.00
2022-12-31T03:53:50.817Z,78.10
2022-12-31T03:56:18.157Z,78.00
2022-12-31T03:58:45.655Z,78.10
2022-12-31T04:01:13.317Z,78.10
2022-12-31T04:03:40.964Z,78.10
2022-12-31T04:06:08.535Z,78.10
2022-12-31T04:08:35.968Z,78.10
2022-12-31T04:11:04.761Z,78.10
2022-12-31T04:13:32.407Z,78.10
2022-12-31T04:16:00.180Z,78.10
2022-12-31T04:18:27.835Z,78.10
2022-12-31T04:20:55.829Z,78.20
2022-12-31T04:23:23.372Z,78.10
2022-12-31T04:25:50.751Z,78.20
2022-12-31T04:28:18.325Z,78.20
2022-12-31T04:30:45.912Z,78.20
2022-12-31T04:33:13.480Z,78.30
2022-12-31T04:35:41.092Z,78.20
2022-12-31T04:38:08.535Z,78.30
2022-12-31T04:40:55.981Z,78.40
2022-12-31T04:43:24.116Z,78.40
2022-12-31T04:45:51.719Z,78.40
2022-12-31T04:48:20.053Z,79.00
2022-12-31T04:50:48.072Z,78.50
2022-12-31T04:53:15.618Z,78.60
2022-12-31T04:55:43.056Z,78.60
2022-12-31T04:58:10.630Z,78.70
2022-12-31T05:00:38.313Z,78.70
2022-12-31T05:03:05.797Z,79.40
2022-12-31T05:05:33.138Z,78.80
2022-12-31T05:08:01.537Z,78.90
2022-12-31T05:10:29.715Z,79.00
2022-12-31T05:12:57.438Z,79.00
2022-12-31T05:15:24.832Z,79.10
2022-12-31T05:17:52.297Z,79.10
2022-12-31T05:20:19.691Z,79.20
2022-12-31T05:22:47.482Z,79.30
2022-12-31T05:25:15.711Z,79.30
2022-12-31T05:27:43.376Z,79.40
2022-12-31T05:30:12.093Z,79.40
2022-12-31T05:32:41.034Z,79.50
2022-12-31T05:35:09.408Z,79.60
2022-12-31T05:37:36.963Z,79.70
2022-12-31T05:40:06.468Z,79.70
2022-12-31T05:42:34.123Z,79.80
2022-12-31T05:45:01.607Z,79.90
2022-12-31T05:47:29.429Z,80.10
2022-12-31T05:49:57.218Z,80.20
2022-12-31T05:52:24.674Z,80.20
2022-12-31T05:54:52.863Z,80.30
2022-12-31T05:57:20.435Z,80.40
2022-12-31T05:59:47.848Z,81.10
2022-12-31T06:02:15.636Z,80.40
2022-12-31T06:04:43.287Z,80.60
2022-12-31T06:07:10.772Z,80.60
2022-12-31T06:09:38.392Z,80.60
2022-12-31T06:12:06.975Z,80.60
2022-12-31T06:14:34.889Z,80.80
2022-12-31T06:17:02.653Z,80.90
2022-12-31T06:19:30.307Z,80.90
2022-12-31T06:21:57.981Z,81.00
2022-12-31T06:24:25.536Z,81.00
2022-12-31T06:26:52.873Z,81.10
2022-12-31T06:29:20.336Z,81.30
2022-12-31T06:31:50.362Z,82.00
2022-12-31T06:34:18.874Z,81.40
2022-12-31T06:36:46.428Z,81.50
2022-12-31T06:39:14.224Z,81.50
2022-12-31T06:41:41.850Z,81.70
2022-12-31T06:44:09.385Z,81.70
2022-12-31T06:46:37.044Z,81.80
2022-12-31T06:49:04.540Z,81.70
2022-12-31T06:51:31.969Z,81.70
2022-12-31T06:53:59.491Z,81.90
2022-12-31T06:56:34.783Z,81.90
2022-12-31T06:59:03.548Z,81.90
2022-12-31T07:02:09.691Z,81.90
2022-12-31T07:05:21.671Z,82.00
2022-12-31T07:08:17.422Z,81.90
2022-12-31T07:11:04.655Z,81.90
2022-12-31T07:14:15.973Z,81.90
2022-12-31T07:17:13.901Z,81.90
2022-12-31T07:19:44.251Z,82.00
2022-12-31T07:22:17.423Z,81.90
2022-12-31T07:24:46.443Z,81.90
2022-12-31T07:27:29.663Z,81.90
2022-12-31T07:30:14.303Z,81.90
2022-12-31T07:33:08.387Z,81.90
2022-12-31T07:36:01.732Z,82.00
2022-12-31T07:38:42.994Z,82.00
2022-12-31T07:41:22.638Z,82.00
2022-12-31T07:44:26.107Z,82.10
2022-12-31T07:47:24.758Z,82.10
2022-12-31T07:49:53.291Z,82.10
2022-12-31T07:52:21.761Z,82.20
2022-12-31T07:54:49.572Z,82.20
2022-12-31T07:57:20.293Z,82.20
2022-12-31T08:00:08.564Z,82.20
2022-12-31T08:03:09.117Z,82.30
2022-12-31T08:05:45.388Z,82.30
2022-12-31T08:08:37.659Z,82.30
2022-12-31T08:11:47.951Z,82.40
2022-12-31T08:14:16.390Z,82.50
2022-12-31T08:16:44.450Z,82.50
2022-12-31T08:19:27.103Z,82.60
2022-12-31T08:22:50.504Z,82.60
2022-12-31T08:25:28.298Z,82.80
2022-12-31T08:28:17.148Z,83.10
2022-12-31T08:31:08.121Z,83.20
2022-12-31T08:34:06.203Z,83.30
2022-12-31T08:36:50.857Z,83.40
2022-12-31T08:39:53.641Z,83.60
2022-12-31T08:43:06.592Z,83.60
2022-12-31T08:45:50.309Z,83.70
2022-12-31T08:48:42.453Z,83.70
2022-12-31T08:51:21.561Z,83.60
2022-12-31T08:53:49.911Z,83.60
2022-12-31T08:56:37.800Z,83.60
2022-12-31T08:59:24.621Z,83.50
2022-12-31T09:02:07.610Z,83.60
2022-12-31T09:05:20.277Z,83.50
2022-12-31T09:08:04.846Z,83.60
2022-12-31T09:10:46.170Z,84.30
2022-12-31T09:13:50.135Z,83.80
2022-12-31T09:16:32.838Z,83.80
2022-12-31T09:19:00.425Z,83.90
2022-12-31T09:21:28.462Z,83.90
2022-12-31T09:23:56.336Z,83.90
2022-12-31T09:27:01.995Z,83.90
2022-12-31T09:30:00.025Z,84.00
2022-12-31T09:32:45.222Z,84.00
2022-12-31T09:35:20.513Z,84.10
2022-12-31T09:37:57.277Z,84.10
2022-12-31T09:40:50.837Z,84.00
2022-12-31T09:43:57.453Z,84.20
2022-12-31T09:47:02.048Z,84.10
2022-12-31T09:50:22.613Z,84.10
2022-12-31T09:53:42.080Z,84.10
2022-12-31T09:56:49.063Z,84.20
2022-12-31T09:59:31.048Z,84.20
2022-12-31T10:02:44.026Z,84.20
2022-12-31T10:05:43.031Z,84.30
2022-12-31T10:08:42.646Z,84.40
2022-12-31T10:11:13.228Z,84.50
2022-12-31T10:14:25.530Z,84.40
2022-12-31T10:17:11.260Z,84.50
2022-12-31T10:19:52.731Z,84.70
2022-12-31T10:22:43.705Z,84.80
2022-12-31T10:25:39.878Z,84.90
2022-12-31T10:28:19.814Z,85.00
2022-12-31T10:31:30.450Z,84.90
2022-12-31T10:34:36.602Z,84.90
2022-12-31T10:37:16.836Z,85.00
2022-12-31T10:40:05.173Z,85.10
2022-12-31T10:43:00.356Z,85.20
2022-12-31T10:46:17.691Z,85.10
2022-12-31T10:49:20.514Z,85.10
2022-12-31T10:52:23.075Z,85.30
2022-12-31T10:55:18.142Z,85.30
2022-12-31T10:58:03.958Z,85.30
2022-12-31T11:00:53.940Z,85.20
2022-12-31T11:04:17.082Z,85.30
2022-12-31T11:07:17.862Z,85.30
2022-12-31T11:10:35.221Z,85.40
2022-12-31T11:13:54.764Z,85.50
2022-12-31T11:16:47.185Z,85.60
2022-12-31T11:20:28.663Z,85.60
2022-12-31T11:23:20.885Z,85.60
2022-12-31T11:26:22.725Z,85.70
2022-12-31T11:29:32.940Z,85.60
2022-12-31T11:32:37.264Z,85.70
2022-12-31T11:35:51.182Z,85.70
2022-12-31T11:38:43.170Z,85.70
2022-12-31T11:41:36.029Z,85.80
2022-12-31T11:44:30.632Z,85.90
2022-12-31T11:47:22.499Z,85.90
2022-12-31T11:50:24.355Z,85.90
2022-12-31T11:53:25.939Z,85.90
2022-12-31T11:56:19.187Z,86.10
2022-12-31T11:58:54.010Z,86.20
2022-12-31T12:01:52.750Z,86.10
2022-12-31T12:04:20.411Z,86.00
2022-12-31T12:06:48.666Z,86.00
2022-12-31T12:09:27.232Z,85.80
2022-12-31T12:12:05.140Z,85.90
2022-12-31T12:14:45.223Z,85.80
2022-12-31T12:17:31.990Z,85.80
2022-12-31T12:20:19.146Z,85.80
2022-12-31T12:22:56.482Z,85.90
2022-12-31T12:25:36.274Z,85.90
2022-12-31T12:28:19.222Z,85.80
2022-12-31T12:31:00.728Z,85.90
2022-12-31T12:33:31.589Z,85.90
2022-12-31T12:36:13.515Z,85.80
2022-12-31T12:38:42.855Z,86.50
2022-12-31T12:41:26.817Z,85.90
2022-12-31T12:44:13.801Z,86.10
2022-12-31T12:46:49.921Z,86.80
2022-12-31T12:49:40.212Z,86.10
2022-12-31T12:52:41.769Z,86.20
2022-12-31T12:55:35.949Z,86.20
2022-12-31T12:58:46.486Z,86.30
2022-12-31T13:01:43.746Z,86.30
2022-12-31T13:04:47.140Z,86.20
2022-12-31T13:07:49.077Z,86.30
2022-12-31T13:10:30.664Z,86.20
2022-12-31T13:13:24.946Z,86.30
2022-12-31T13:16:05.559Z,86.30
2022-12-31T13:19:00.559Z,86.30
2022-12-31T13:21:55.546Z,86.30
2022-12-31T13:24:44.288Z,86.20
2022-12-31T13:27:38.703Z,86.80
2022-12-31T13:30:33.192Z,86.10
2022-12-31T13:33:22.736Z,86.00
2022-12-31T13:36:21.606Z,86.00
2022-12-31T13:38:55.998Z,86.10
2022-12-31T13:41:41.735Z,86.00
2022-12-31T13:44:29.768Z,86.10
2022-12-31T13:47:15.446Z,85.90
2022-12-31T13:50:12.529Z,86.00
2022-12-31T13:53:03.687Z,86.10
2022-12-31T13:55:56.641Z,86.30
2022-12-31T13:58:41.391Z,86.20
2022-12-31T14:01:33.617Z,86.30
2022-12-31T14:04:21.877Z,86.90
2022-12-31T14:07:19.640Z,86.50
2022-12-31T14:09:47.251Z,86.40
2022-12-31T14:12:37.116Z,86.40
2022-12-31T14:15:42.446Z,86.50
2022-12-31T14:18:36.628Z,86.50
2022-12-31T14:21:28.848Z,86.60
2022-12-31T14:24:14.228Z,86.70
2022-12-31T14:26:44.665Z,86.80
2022-12-31T14:29:12.306Z,86.70
2022-12-31T14:31:48.830Z,86.90
2022-12-31T14:34:35.617Z,86.80
2022-12-31T14:37:28.205Z,86.70
2022-12-31T14:40:20.330Z,86.70
2022-12-31T14:43:21.794Z,86.80
2022-12-31T14:46:10.663Z,86.80
2022-12-31T14:49:28.754Z,87.40
2022-12-31T14:51:56.213Z,86.70
2022-12-31T14:54:37.483Z,86.70
2022-12-31T14:57:24.843Z,86.50
2022-12-31T14:59:58.778Z,86.50
2022-12-31T15:02:35.580Z,86.40
2022-12-31T15:05:19.492Z,86.50
2022-12-31T15:08:02.006Z,86.40
2022-12-31T15:10:44.499Z,86.30
2022-12-31T15:13:57.672Z,86.30
2022-12-31T15:16:55.791Z,86.30
2022-12-31T15:20:16.715Z,86.40
2022-12-31T15:22:51.536Z,86.60
2022-12-31T15:25:40.014Z,86.70
2022-12-31T15:28:41.185Z,86.60
2022-12-31T15:31:17.502Z,86.70
2022-12-31T15:33:56.931Z,86.70
2022-12-31T15:36:31.289Z,86.70
2022-12-31T15:39:10.929Z,86.80
2022-12-31T15:42:03.152Z,86.80
2022-12-31T15:44:49.407Z,86.70
2022-12-31T15:47:42.363Z,86.80
2022-12-31T15:50:19.374Z,86.80
2022-12-31T15:52:58.789Z,87.00
2022-12-31T15:55:48.932Z,87.00
2022-12-31T15:58:26.684Z,87.00
2022-12-31T16:01:20.953Z,87.00
2022-12-31T16:04:19.369Z,87.00
2022-12-31T16:06:50.982Z,86.90
2022-12-31T16:09:29.045Z,86.90
2022-12-31T16:11:58.855Z,86.90
2022-12-31T16:14:43.893Z,87.00
2022-12-31T16:17:32.454Z,86.80
2022-12-31T16:20:02.484Z,86.90
2022-12-31T16:22:38.248Z,86.70
2022-12-31T16:25:30.300Z,86.80
2022-12-31T16:27:56.573Z,86.80
2022-12-31T16:30:32.747Z,86.90
2022-12-31T16:33:06.241Z,86.90
2022-12-31T16:35:36.906Z,87.00
2022-12-31T16:38:17.893Z,86.90
2022-12-31T16:41:24.574Z,87.00
2022-12-31T16:43:52.342Z,87.10
2022-12-31T16:46:30.042Z,87.20
2022-12-31T16:49:16.362Z,87.30
2022-12-31T16:51:43.969Z,87.30
2022-12-31T16:54:26.284Z,87.30
2022-12-31T16:56:54.044Z,88.10
2022-12-31T16:59:40.718Z,87.40
2022-12-31T17:02:19.745Z,87.80
2022-12-31T17:04:55.756Z,87.90
2022-12-31T17:07:33.009Z,88.00
2022-12-31T17:10:23.746Z,88.10
2022-12-31T17:15:47.022Z,88.20
2022-12-31T17:18:36.628Z,88.40
2022-12-31T17:21:10.185Z,88.60
2022-12-31T17:23:40.122Z,88.50
2022-12-31T17:26:23.851Z,88.50
2022-12-31T17:28:54.306Z,88.50
2022-12-31T17:31:35.706Z,88.50
2022-12-31T17:34:24.225Z,88.60
2022-12-31T17:37:03.707Z,88.70
2022-12-31T17:39:53.659Z,88.70
2022-12-31T17:42:40.658Z,88.60
2022-12-31T17:45:18.766Z,88.70
2022-12-31T17:47:51.391Z,88.60
2022-12-31T17:50:25.979Z,88.70
2022-12-31T17:53:16.956Z,88.70
2022-12-31T17:55:48.795Z,88.80
2022-12-31T17:58:34.980Z,88.90
2022-12-31T18:01:07.879Z,88.80
2022-12-31T18:03:35.943Z,88.70
2022-12-31T18:06:05.600Z,88.70
2022-12-31T18:08:33.213Z,88.60
2022-12-31T18:11:00.655Z,88.50
2022-12-31T18:13:28.828Z,88.60
2022-12-31T18:15:56.424Z,88.50
2022-12-31T18:18:29.493Z,88.60
2022-12-31T18:21:04.485Z,88.60
2022-12-31T18:23:37.149Z,88.50
2022-12-31T18:26:04.779Z,88.40
2022-12-31T18:28:32.513Z,88.40
2022-12-31T18:31:00.291Z,88.20
2022-12-31T18:33:28.825Z,88.20
2022-12-31T18:36:11.664Z,88.40
2022-12-31T18:38:39.727Z,88.00
2022-12-31T18:41:15.920Z,88.10
2022-12-31T18:43:43.633Z,88.00
2022-12-31T18:46:16.942Z,87.90
2022-12-31T18:48:45.520Z,87.90
2022-12-31T18:51:20.113Z,87.80
2022-12-31T18:53:47.943Z,87.70
2022-12-31T18:56:19.166Z,87.80
2022-12-31T18:58:48.269Z,87.90
2022-12-31T19:01:29.609Z,87.80
2022-12-31T19:04:13.946Z,87.80
2022-12-31T19:06:42.776Z,87.80
2022-12-31T19:09:42.885Z,87.80
2022-12-31T19:12:00.686Z,87.80
2022-12-31T19:14:29.094Z,87.80
2022-12-31T19:19:26.444Z,87.90
2022-12-31T19:21:53.920Z,87.90
2022-12-31T19:24:26.788Z,87.90
2022-12-31T19:26:55.889Z,88.00
2022-12-31T19:29:27.129Z,88.10
2022-12-31T19:31:55.296Z,88.10
2022-12-31T19:34:23.883Z,88.30
2022-12-31T19:36:51.240Z,88.30
2022-12-31T19:39:21.474Z,88.20
2022-12-31T19:41:58.177Z,88.10
2022-12-31T19:44:26.755Z,87.90
2022-12-31T19:46:54.153Z,87.90
2022-12-31T19:49:21.718Z,87.90
2022-12-31T19:51:49.238Z,87.90
2022-12-31T19:54:16.746Z,87.90
2022-12-31T19:56:44.297Z,87.80
2022-12-31T19:59:12.364Z,88.00
2022-12-31T20:01:45.911Z,88.00
2022-12-31T20:04:13.992Z,88.00
2022-12-31T20:06:41.647Z,87.90
2022-12-31T20:09:11.112Z,88.00
2022-12-31T20:11:38.780Z,88.00
2022-12-31T20:14:06.236Z,88.00
2022-12-31T20:16:34.243Z,88.00
2022-12-31T20:19:02.235Z,88.10
2022-12-31T20:21:35.301Z,88.10
2022-12-31T20:24:06.197Z,88.00
2022-12-31T20:26:33.922Z,88.00
2022-12-31T20:29:01.494Z,87.90
2022-12-31T20:31:29.040Z,87.90
2022-12-31T20:33:56.828Z,87.80
2022-12-31T20:36:25.900Z,87.80
2022-12-31T20:38:53.472Z,87.80
2022-12-31T20:41:23.361Z,87.80
2022-12-31T20:43:51.602Z,87.70
2022-12-31T20:46:25.777Z,87.60
2022-12-31T20:48:56.958Z,87.40
2022-12-31T20:51:26.722Z,87.10
2022-12-31T20:54:01.397Z,87.00
2022-12-31T20:56:32.847Z,86.70
2022-12-31T20:59:01.100Z,86.50
2022-12-31T21:01:41.751Z,86.30
2022-12-31T21:04:16.794Z,86.10
2022-12-31T21:06:44.460Z,86.00
2022-12-31T21:09:14.121Z,85.90
2022-12-31T21:12:00.257Z,85.70
2022-12-31T21:14:27.796Z,85.70
2022-12-31T21:16:55.370Z,85.70
2022-12-31T21:19:22.839Z,85.70
2022-12-31T21:21:50.187Z,85.50
2022-12-31T21:24:23.505Z,85.60
2022-12-31T21:26:52.338Z,85.50
2022-12-31T21:29:20.019Z,85.50
2022-12-31T21:31:47.484Z,85.40
2022-12-31T21:34:14.969Z,85.40
2022-12-31T21:36:42.847Z,85.40
2022-12-31T21:39:10.336Z,85.30
2022-12-31T21:41:52.661Z,85.30
2022-12-31T21:44:25.998Z,85.20
2022-12-31T21:47:40.908Z,85.00
2022-12-31T21:50:09.169Z,85.00
2022-12-31T21:52:36.856Z,85.00
2022-12-31T21:55:25.196Z,85.00
2022-12-31T21:58:25.140Z,84.90
2022-12-31T22:00:59.490Z,84.80
2022-12-31T22:03:31.926Z,84.80
2022-12-31T22:06:16.433Z,84.80
2022-12-31T22:08:49.165Z,84.70
2022-12-31T22:11:19.628Z,84.70
2022-12-31T22:13:48.199Z,84.70
2022-12-31T22:16:17.401Z,84.60
2022-12-31T22:18:44.899Z,84.50
2022-12-31T22:21:20.030Z,84.30
2022-12-31T22:23:54.548Z,84.20
2022-12-31T22:26:29.125Z,84.20
2022-12-31T22:29:00.035Z,84.10
2022-12-31T22:31:30.219Z,84.00
2022-12-31T22:33:59.699Z,66.00
2022-12-31T22:36:27.481Z,65.90
2022-12-31T22:38:58.481Z,65.80
2022-12-31T22:41:28.474Z,65.60
2022-12-31T22:44:05.834Z,65.50
2022-12-31T22:46:34.841Z,65.50
2022-12-31T22:49:04.610Z,65.50
2022-12-31T22:51:56.902Z,65.50
2022-12-31T22:54:22.999Z,65.40
2022-12-31T22:56:50.695Z,65.50
2022-12-31T22:59:18.323Z,65.50
2022-12-31T23:01:45.999Z,65.50
2022-12-31T23:04:13.423Z,65.50
2022-12-31T23:06:43.890Z,65.40
2022-12-31T23:09:35.176Z,65.40
2022-12-31T23:12:07.908Z,65.20
2022-12-31T23:14:53.931Z,65.30
2022-12-31T23:17:46.923Z,65.20
2022-12-31T23:20:36.995Z,65.30
2022-12-31T23:23:07.923Z,65.30
2022-12-31T23:25:46.131Z,65.40
2022-12-31T23:28:25.526Z,65.40
2022-12-31T23:30:54.034Z,65.30
2022-12-31T23:33:25.096Z,65.30
2022-12-31T23:36:04.314Z,65.30
2022-12-31T23:38:31.787Z,65.20
2022-12-31T23:40:59.208Z,65.10
2022-12-31T23:43:26.688Z,65.10
2022-12-31T23:45:54.216Z,65.10
2022-12-31T23:48:21.595Z,65.00
2022-12-31T23:50:53.869Z,64.90
2022-12-31T23:53:25.137Z,65.00
2022-12-31T23:55:54.119Z,64.90
2022-12-31T23:58:22.470Z,64.90
